Time;durP1;ratioP1;P1;durP2;ratioP2;P2;SDS_P1;SDS_P2;PMS_P1;PMS_P2;Temp;Humidity;BMP_temperature;BMP_pressure;BME280_temperature;BME280_humidity;BME280_pressure;Samples;Min_cycle;Max_cycle;Signal;HPM_P1;HPM_P2
2023/07/23 00:02:22;;;;;;;19.60;5.40;;;;;;;13.05;73.59;100154.38;107292;1285;22525;-78
2023/07/23 00:04:53;;;;;;;17.80;5.70;;;;;;;13.01;73.71;100153.31;107325;1285;22669;-78
2023/07/23 00:07:24;;;;;;;10.60;3.30;;;;;;;12.97;74.07;100155.33;107306;1285;22538;-78
2023/07/23 00:09:55;;;;;;;13.40;4.80;;;;;;;12.95;74.26;100155.81;107252;1285;22549;-78
2023/07/23 00:12:26;;;;;;;16.10;4.10;;;;;;;12.93;74.45;100156.00;107227;1279;23262;-78
2023/07/23 00:14:56;;;;;;;14.20;4.00;;;;;;;12.90;74.54;100153.08;107254;1282;22550;-77
2023/07/23 00:17:27;;;;;;;15.70;5.00;;;;;;;12.87;74.71;100148.77;107233;1282;23032;-78
2023/07/23 00:19:58;;;;;;;13.90;3.90;;;;;;;12.85;74.97;100140.76;107226;1283;22575;-78
2023/07/23 00:22:28;;;;;;;13.90;4.60;;;;;;;12.82;75.05;100138.55;107191;1283;22552;-78
2023/07/23 00:24:59;;;;;;;17.20;5.80;;;;;;;12.80;75.24;100135.88;107287;1278;22566;-79
2023/07/23 00:27:30;;;;;;;17.20;5.40;;;;;;;12.78;75.47;100135.05;107330;1282;22529;-78
2023/07/23 00:30:01;;;;;;;16.50;4.90;;;;;;;12.76;75.74;100137.79;107226;1283;23444;-78
2023/07/23 00:32:31;;;;;;;20.30;5.90;;;;;;;12.76;75.83;100138.69;107302;1284;22601;-78
2023/07/23 00:35:02;;;;;;;14.00;5.10;;;;;;;12.74;76.05;100132.79;107145;1281;22793;-78
2023/07/23 00:37:33;;;;;;;14.40;4.90;;;;;;;12.75;76.17;100130.23;107173;1284;24452;-78
2023/07/23 00:40:05;;;;;;;21.70;5.90;;;;;;;12.76;76.33;100131.65;107259;1285;22576;-77
2023/07/23 00:42:35;;;;;;;15.80;4.80;;;;;;;12.76;76.91;100129.43;107284;1285;22959;-78
2023/07/23 00:45:07;;;;;;;14.70;4.40;;;;;;;12.79;76.93;100126.89;107153;1285;23222;-78
2023/07/23 00:47:39;;;;;;;24.90;4.50;;;;;;;12.81;77.00;100127.48;107275;1285;22587;-78
2023/07/23 00:50:13;;;;;;;16.50;4.80;;;;;;;12.84;77.17;100128.11;107330;1277;22530;-78
2023/07/23 00:52:44;;;;;;;14.60;4.60;;;;;;;12.86;77.48;100122.89;109771;1279;23186;-78
2023/07/23 00:55:15;;;;;;;15.30;4.50;;;;;;;12.90;77.65;100120.58;109763;1273;22405;-79
2023/07/23 00:57:46;;;;;;;13.30;4.20;;;;;;;12.93;77.85;100122.19;109768;1282;22179;-79
2023/07/23 01:00:17;;;;;;;15.90;5.50;;;;;;;12.98;78.19;100116.55;109726;1276;22200;-79
2023/07/23 01:02:49;;;;;;;11.50;3.50;;;;;;;13.02;78.14;100109.14;109750;1282;22231;-78
2023/07/23 01:05:20;;;;;;;14.50;3.80;;;;;;;13.06;78.32;100102.48;109763;1281;22209;-80
2023/07/23 01:07:51;;;;;;;14.20;4.20;;;;;;;13.11;78.41;100101.49;109757;1283;22197;-78
2023/07/23 01:10:22;;;;;;;17.00;4.50;;;;;;;13.16;78.47;100099.33;109737;1280;22181;-79
2023/07/23 01:12:53;;;;;;;12.10;4.30;;;;;;;13.19;78.48;100098.23;109742;1282;22205;-78
2023/07/23 01:15:24;;;;;;;14.80;4.70;;;;;;;13.21;78.25;100091.56;109748;1285;22138;-78
2023/07/23 01:17:57;;;;;;;15.50;3.90;;;;;;;13.24;78.29;100092.29;109739;1282;22880;-78
2023/07/23 01:20:28;;;;;;;15.40;3.90;;;;;;;13.24;78.21;100087.66;109718;1279;23255;-79
2023/07/23 01:22:59;;;;;;;11.70;3.30;;;;;;;13.24;77.96;100084.19;109761;1282;22206;-80
2023/07/23 01:25:29;;;;;;;11.10;3.30;;;;;;;13.23;78.17;100081.28;109773;1279;22178;-78
2023/07/23 01:28:00;;;;;;;13.80;4.30;;;;;;;13.20;78.14;100081.82;109755;1282;22217;-79
2023/07/23 01:30:31;;;;;;;11.80;3.70;;;;;;;13.18;78.08;100082.11;109756;1282;22143;-78
2023/07/23 01:33:04;;;;;;;13.60;3.50;;;;;;;13.15;78.23;100077.86;109788;1282;22173;-78
2023/07/23 01:35:34;;;;;;;12.50;4.10;;;;;;;13.13;78.19;100075.61;109753;1285;22158;-79
2023/07/23 01:38:06;;;;;;;16.40;3.90;;;;;;;13.10;78.34;100070.85;109776;1285;22398;-78
2023/07/23 01:40:37;;;;;;;12.70;4.30;;;;;;;13.07;78.44;100069.67;109738;1283;22231;-78
2023/07/23 01:43:08;;;;;;;15.30;4.50;;;;;;;13.06;78.46;100066.55;109738;1285;22154;-79
2023/07/23 01:45:41;;;;;;;12.20;3.60;;;;;;;13.05;78.64;100066.86;109775;1282;22849;-78
2023/07/23 01:48:12;;;;;;;14.30;4.40;;;;;;;13.04;78.54;100059.64;109759;1285;22196;-79
2023/07/23 01:50:43;;;;;;;13.50;4.30;;;;;;;13.03;78.67;100053.61;109737;1285;22149;-78
2023/07/23 01:53:14;;;;;;;13.00;3.60;;;;;;;13.01;78.85;100052.58;109787;1284;22322;-79
2023/07/23 01:55:44;;;;;;;14.10;3.90;;;;;;;12.99;79.12;100056.14;109813;1284;22383;-79
2023/07/23 01:58:15;;;;;;;12.40;3.60;;;;;;;12.99;79.23;100052.52;109751;1285;22666;-79
2023/07/23 02:00:46;;;;;;;12.60;4.00;;;;;;;12.98;79.34;100048.88;109756;1285;22182;-78
2023/07/23 02:03:16;;;;;;;14.40;3.70;;;;;;;12.98;79.53;100047.21;109755;1280;22324;-80
2023/07/23 02:05:57;;;;;;;11.50;3.30;;;;;;;12.99;79.70;100046.61;109762;1285;22210;-78
2023/07/23 02:08:28;;;;;;;9.50;3.10;;;;;;;13.02;79.91;100050.35;109789;1285;22205;-79
2023/07/23 02:11:02;;;;;;;13.70;3.80;;;;;;;13.07;80.14;100049.80;109740;1285;22208;-79
2023/07/23 02:13:33;;;;;;;12.00;3.70;;;;;;;13.11;80.15;100048.09;109758;1285;22124;-78
2023/07/23 02:16:05;;;;;;;14.90;4.20;;;;;;;13.14;80.31;100043.05;109758;1285;22979;-78
2023/07/23 02:18:35;;;;;;;24.70;5.70;;;;;;;13.16;80.27;100048.66;109780;1285;22372;-79
2023/07/23 02:21:06;;;;;;;15.20;4.50;;;;;;;13.17;80.33;100042.36;109725;1285;22963;-79
2023/07/23 02:23:37;;;;;;;12.60;3.80;;;;;;;13.18;80.21;100043.13;109768;1280;22185;-78
2023/07/23 02:26:08;;;;;;;11.30;4.20;;;;;;;13.18;80.31;100043.58;109764;1285;22331;-79
2023/07/23 02:28:42;;;;;;;11.90;3.70;;;;;;;13.18;80.34;100042.05;109765;1285;22155;-79
2023/07/23 02:31:13;;;;;;;9.90;3.30;;;;;;;13.18;80.38;100042.92;109674;1285;22448;-79
2023/07/23 02:33:44;;;;;;;12.30;3.80;;;;;;;13.18;80.40;100039.92;109763;1285;22229;-78
2023/07/23 02:36:15;;;;;;;11.80;3.60;;;;;;;13.17;80.40;100038.43;109753;1280;22167;-79
2023/07/23 02:38:45;;;;;;;12.20;4.00;;;;;;;13.17;80.31;100040.73;109764;1285;23177;-79
2023/07/23 02:41:16;;;;;;;12.40;3.60;;;;;;;13.19;80.65;100036.15;107533;1276;22634;-78
2023/07/23 02:43:47;;;;;;;12.40;3.70;;;;;;;13.20;80.97;100038.96;106786;1283;22610;-78
2023/07/23 02:46:18;;;;;;;10.20;2.90;;;;;;;13.22;81.10;100037.48;107013;1280;23632;-79
2023/07/23 02:48:48;;;;;;;11.90;4.10;;;;;;;13.23;81.17;100033.27;107314;1283;22560;-78
2023/07/23 02:51:20;;;;;;;11.60;3.70;;;;;;;13.24;81.07;100029.85;107276;1285;24292;-78
2023/07/23 02:53:50;;;;;;;12.20;3.20;;;;;;;13.27;81.10;100030.80;107261;1283;24420;-79
2023/07/23 02:56:21;;;;;;;12.70;3.70;;;;;;;13.28;81.15;100029.98;107415;1280;22526;-78
2023/07/23 02:58:52;;;;;;;14.30;3.50;;;;;;;13.29;80.97;100028.10;107420;1280;24016;-79
2023/07/23 03:01:22;;;;;;;16.30;3.80;;;;;;;13.29;80.97;100022.55;107225;1285;22813;-78
2023/07/23 03:03:53;;;;;;;10.10;3.10;;;;;;;13.31;80.93;100022.70;107253;1283;22555;-79
2023/07/23 03:06:24;;;;;;;13.30;4.10;;;;;;;13.30;81.01;100026.32;107185;1285;22607;-78
2023/07/23 03:08:55;;;;;;;11.00;3.10;;;;;;;13.31;80.92;100028.62;107273;1285;22491;-78
2023/07/23 03:11:25;;;;;;;11.70;3.60;;;;;;;13.30;81.10;100029.33;107297;1285;22579;-78
2023/07/23 03:13:56;;;;;;;12.50;4.00;;;;;;;13.30;81.10;100030.05;107302;1285;22533;-78
2023/07/23 03:16:27;;;;;;;14.90;4.80;;;;;;;13.31;81.41;100030.59;107314;1280;22570;-78
2023/07/23 03:18:58;;;;;;;12.00;4.00;;;;;;;13.32;81.63;100025.16;107286;1282;22680;-78
2023/07/23 03:21:28;;;;;;;10.00;4.00;;;;;;;13.34;81.54;100020.73;107284;1285;24467;-79
2023/07/23 03:23:59;;;;;;;12.80;4.00;;;;;;;13.35;81.61;100015.27;107307;1280;22533;-78
2023/07/23 03:26:30;;;;;;;12.50;3.70;;;;;;;13.36;81.76;100018.23;107260;1283;22557;-78
2023/07/23 03:29:00;;;;;;;16.20;4.50;;;;;;;13.37;81.90;100016.16;107240;1283;22936;-78
2023/07/23 03:31:31;;;;;;;10.80;4.20;;;;;;;13.38;82.05;100012.29;107311;1285;25461;-78
2023/07/23 03:34:02;;;;;;;13.20;4.50;;;;;;;13.38;82.14;100014.67;107343;1284;25436;-79
2023/07/23 03:36:33;;;;;;;13.50;4.70;;;;;;;13.39;82.30;100016.20;107289;1280;26610;-78
2023/07/23 03:39:04;;;;;;;14.70;4.30;;;;;;;13.40;82.28;100015.80;107239;1280;22536;-78
2023/07/23 03:41:34;;;;;;;16.60;4.20;;;;;;;13.42;82.37;100013.36;107260;1277;22557;-78
2023/07/23 03:44:05;;;;;;;13.40;3.70;;;;;;;13.45;82.54;100014.41;107274;1277;23402;-78
2023/07/23 03:46:42;;;;;;;12.40;4.10;;;;;;;13.48;82.51;100011.81;107159;1276;24167;-78
2023/07/23 03:49:13;;;;;;;12.80;4.10;;;;;;;13.52;82.81;100012.64;107287;1283;25318;-78
2023/07/23 03:51:43;;;;;;;11.20;3.70;;;;;;;13.55;83.01;100013.31;107211;1285;22551;-78
2023/07/23 03:54:14;;;;;;;12.10;3.90;;;;;;;13.59;82.99;100007.16;107033;1282;24196;-78
2023/07/23 03:56:44;;;;;;;17.70;4.70;;;;;;;13.62;82.98;100006.25;107209;1279;22557;-78
2023/07/23 03:59:15;;;;;;;11.30;3.80;;;;;;;13.66;83.02;100006.98;107310;1279;22567;-78
2023/07/23 04:01:46;;;;;;;14.50;4.60;;;;;;;13.70;83.06;100005.30;107332;1285;23762;-78
2023/07/23 04:04:17;;;;;;;16.40;5.50;;;;;;;13.73;83.29;100009.13;107324;1274;25616;-79
2023/07/23 04:06:47;;;;;;;14.90;4.50;;;;;;;13.74;83.41;100007.70;107352;1285;22555;-78
2023/07/23 04:09:18;;;;;;;13.60;5.50;;;;;;;13.77;83.30;100004.45;107343;1285;25309;-78
2023/07/23 04:11:49;;;;;;;14.50;4.60;;;;;;;13.79;83.35;100006.04;107297;1285;22591;-77
2023/07/23 04:14:19;;;;;;;12.80;4.40;;;;;;;13.84;83.46;100009.83;107227;1285;26353;-78
2023/07/23 04:16:51;;;;;;;11.60;4.60;;;;;;;13.87;83.47;100007.77;107228;1285;22531;-78
2023/07/23 04:19:21;;;;;;;10.80;3.70;;;;;;;13.87;83.51;99999.61;107190;1277;22585;-78
2023/07/23 04:21:56;;;;;;;11.40;4.80;;;;;;;13.91;83.76;100001.00;107269;1285;24202;-78
2023/07/23 04:24:26;;;;;;;12.10;4.30;;;;;;;13.94;83.76;100000.60;107167;1285;22947;-78
2023/07/23 04:26:57;;;;;;;15.90;4.50;;;;;;;13.98;83.66;100001.23;107361;1283;22658;-78
2023/07/23 04:29:28;;;;;;;15.80;4.40;;;;;;;14.03;83.86;99994.48;107387;1285;25437;-78
2023/07/23 04:31:59;;;;;;;14.30;3.70;;;;;;;14.09;84.09;99993.44;107375;1271;24228;-78
2023/07/23 04:34:29;;;;;;;14.60;4.20;;;;;;;14.15;84.11;99993.29;107335;1285;25428;-78
2023/07/23 04:37:00;;;;;;;14.00;4.70;;;;;;;14.19;84.14;99995.73;107206;1280;22700;-78
2023/07/23 04:39:31;;;;;;;13.60;4.10;;;;;;;14.25;84.28;99994.70;107312;1285;22643;-78
2023/07/23 04:42:01;;;;;;;12.00;4.10;;;;;;;14.30;84.32;99999.52;107141;1273;22549;-78
2023/07/23 04:44:32;;;;;;;11.70;3.70;;;;;;;14.37;84.21;99992.64;107148;1279;23936;-78
2023/07/23 04:47:03;;;;;;;13.00;4.60;;;;;;;14.43;84.45;99986.92;107173;1280;22555;-78
2023/07/23 04:49:34;;;;;;;11.80;3.30;;;;;;;14.50;84.28;99985.84;107267;1280;23460;-78
2023/07/23 04:52:05;;;;;;;13.70;4.50;;;;;;;14.57;84.23;99984.36;107278;1285;22572;-77
2023/07/23 04:54:36;;;;;;;10.70;3.60;;;;;;;14.64;84.31;99985.05;107279;1285;23306;-78
2023/07/23 04:57:07;;;;;;;10.50;3.40;;;;;;;14.70;84.49;99987.86;107278;1285;26041;-78
2023/07/23 04:59:38;;;;;;;12.80;3.90;;;;;;;14.77;84.29;99984.48;107306;1285;24747;-78
2023/07/23 05:02:09;;;;;;;10.60;3.50;;;;;;;14.85;84.27;99978.84;107337;1270;22781;-78
2023/07/23 05:04:39;;;;;;;11.90;4.00;;;;;;;14.93;84.34;99985.05;107276;1285;24217;-78
2023/07/23 05:07:10;;;;;;;11.30;3.80;;;;;;;15.01;84.09;99986.10;107248;1285;22613;-78
2023/07/23 05:09:44;;;;;;;11.40;4.20;;;;;;;15.09;84.07;99986.95;107270;1280;24349;-78
2023/07/23 05:12:14;;;;;;;9.90;3.30;;;;;;;15.17;83.69;99977.97;107268;1273;22497;-78
2023/07/23 05:14:48;;;;;;;9.30;2.80;;;;;;;15.24;83.26;99981.10;107218;1280;24048;-78
2023/07/23 05:17:18;;;;;;;11.50;2.90;;;;;;;15.33;83.02;99976.00;107274;1274;22583;-78
2023/07/23 05:19:50;;;;;;;8.30;2.10;;;;;;;15.41;82.80;99971.89;107331;1279;27385;-78
2023/07/23 05:22:20;;;;;;;9.30;2.30;;;;;;;15.50;82.28;99971.61;107293;1281;22585;-78
2023/07/23 05:24:52;;;;;;;9.60;2.70;;;;;;;15.61;82.29;99972.22;107271;1280;25439;-78
2023/07/23 05:27:22;;;;;;;10.10;2.30;;;;;;;15.73;82.06;99971.98;107187;1278;22552;-78
2023/07/23 05:29:53;;;;;;;9.50;2.40;;;;;;;15.85;82.01;99964.03;107207;1283;23433;-78
2023/07/23 05:32:24;;;;;;;8.70;2.10;;;;;;;15.98;81.89;99965.73;107237;1281;22646;-79
2023/07/23 05:34:55;;;;;;;8.50;2.20;;;;;;;16.11;81.72;99963.33;107295;1285;22487;-79
2023/07/23 05:37:27;;;;;;;9.50;2.70;;;;;;;16.22;81.30;99966.16;107401;1285;22550;-78
2023/07/23 05:39:58;;;;;;;8.30;1.90;;;;;;;16.33;81.04;99974.57;107308;1285;22589;-78
2023/07/23 05:42:29;;;;;;;8.90;2.20;;;;;;;16.43;81.11;99973.91;107312;1285;22532;-78
2023/07/23 05:45:00;;;;;;;9.60;2.50;;;;;;;16.53;80.60;99974.15;107283;1278;24289;-78
2023/07/23 05:47:30;;;;;;;7.80;2.30;;;;;;;16.63;80.07;99975.97;107321;1285;22552;-78
2023/07/23 05:50:01;;;;;;;9.40;2.10;;;;;;;16.70;79.91;99973.06;107318;1285;22508;-78
2023/07/23 05:52:32;;;;;;;8.00;1.80;;;;;;;16.78;79.91;99974.69;107163;1282;24259;-78
2023/07/23 05:55:03;;;;;;;6.60;2.00;;;;;;;16.87;79.85;99966.64;107217;1280;22628;-78
2023/07/23 05:57:33;;;;;;;11.20;2.40;;;;;;;16.95;79.50;99965.08;107195;1280;24196;-78
2023/07/23 06:00:05;;;;;;;5.40;1.50;;;;;;;17.05;79.29;99966.86;107241;1283;25184;-77
2023/07/23 06:02:36;;;;;;;7.20;1.80;;;;;;;17.15;79.00;99961.66;107297;1280;23162;-78
2023/07/23 06:05:08;;;;;;;6.70;1.90;;;;;;;17.26;78.42;99961.77;107248;1285;22527;-79
2023/07/23 06:07:39;;;;;;;7.20;1.70;;;;;;;17.39;77.86;99962.23;107270;1280;26568;-78
2023/07/23 06:10:10;;;;;;;7.10;1.90;;;;;;;17.51;77.79;99964.33;107227;1278;22527;-78
2023/07/23 06:12:41;;;;;;;7.80;1.70;;;;;;;17.63;77.40;99959.97;107084;1280;22734;-78
2023/07/23 06:15:12;;;;;;;7.80;1.70;;;;;;;17.71;76.98;99962.12;106737;1280;24917;-78
2023/07/23 06:17:43;;;;;;;7.20;1.80;;;;;;;17.77;76.70;99956.63;107257;1285;22625;-78
2023/07/23 06:20:14;;;;;;;9.20;1.80;;;;;;;17.86;76.89;99952.30;107295;1285;23051;-78
2023/07/23 06:22:44;;;;;;;7.60;1.40;;;;;;;17.97;76.67;99950.89;107233;1283;23007;-78
2023/07/23 06:25:15;;;;;;;7.60;2.00;;;;;;;18.10;76.42;99953.77;107291;1273;22620;-78
2023/07/23 06:27:46;;;;;;;6.30;1.70;;;;;;;18.24;76.31;99951.58;107322;1282;25367;-78
2023/07/23 06:30:17;;;;;;;6.60;1.90;;;;;;;18.39;75.90;99947.23;107274;1285;23002;-78
2023/07/23 06:32:48;;;;;;;6.50;1.70;;;;;;;18.53;75.55;99947.55;107229;1280;22657;-78
2023/07/23 06:35:19;;;;;;;6.70;1.80;;;;;;;18.67;75.31;99946.75;107219;1279;22530;-78
2023/07/23 06:37:50;;;;;;;7.50;1.30;;;;;;;18.82;75.10;99941.48;107157;1285;22582;-76
2023/07/23 06:40:21;;;;;;;7.00;1.70;;;;;;;19.00;75.00;99942.45;107176;1285;23048;-78
2023/07/23 06:42:51;;;;;;;7.20;1.70;;;;;;;19.17;74.82;99941.79;107306;1273;22563;-78
2023/07/23 06:45:23;;;;;;;7.00;1.50;;;;;;;19.43;74.72;99941.79;107307;1270;23040;-78
2023/07/23 06:47:53;;;;;;;6.90;1.40;;;;;;;19.71;74.10;99941.98;107224;1276;22793;-78
2023/07/23 06:50:24;;;;;;;8.50;1.60;;;;;;;19.98;73.76;99932.45;107250;1285;23166;-78
2023/07/23 06:52:55;;;;;;;6.50;1.50;;;;;;;20.25;73.04;99936.08;107242;1280;24310;-78
2023/07/23 06:55:26;;;;;;;8.10;1.40;;;;;;;20.47;71.80;99929.59;107007;1282;22555;-78
2023/07/23 06:57:57;;;;;;;4.90;1.30;;;;;;;20.66;70.14;99928.72;106907;1283;24405;-77
2023/07/23 07:00:28;;;;;;;6.80;1.40;;;;;;;20.80;69.26;99930.27;106911;1279;23232;-77
2023/07/23 07:02:59;;;;;;;4.80;1.20;;;;;;;20.91;68.90;99929.25;106980;1280;22594;-77
2023/07/23 07:05:30;;;;;;;6.60;1.40;;;;;;;21.02;68.30;99931.41;106845;1285;22715;-77
2023/07/23 07:08:00;;;;;;;6.20;1.00;;;;;;;21.11;67.73;99930.21;106912;1280;22644;-77
2023/07/23 07:10:31;;;;;;;8.30;1.30;;;;;;;21.20;67.34;99928.88;107042;1278;22671;-77
2023/07/23 07:13:02;;;;;;;5.40;0.90;;;;;;;21.29;66.22;99929.13;106869;1282;25502;-76
2023/07/23 07:15:32;;;;;;;4.80;1.00;;;;;;;21.36;65.70;99923.26;106904;1285;22583;-76
2023/07/23 07:18:04;;;;;;;4.30;1.20;;;;;;;21.46;65.52;99926.37;106894;1277;22491;-76
2023/07/23 07:20:34;;;;;;;4.80;1.10;;;;;;;21.58;64.92;99924.33;106931;1273;22987;-77
2023/07/23 07:23:05;;;;;;;9.20;1.50;;;;;;;21.67;64.45;99929.77;106914;1277;22585;-77
2023/07/23 07:25:38;;;;;;;7.70;1.50;;;;;;;21.76;64.02;99926.13;106895;1277;23360;-76
2023/07/23 07:28:09;;;;;;;5.20;1.10;;;;;;;21.84;63.36;99923.29;107000;1280;25669;-77
2023/07/23 07:30:43;;;;;;;6.90;1.00;;;;;;;21.93;63.12;99926.19;107108;1280;22649;-76
2023/07/23 07:33:13;;;;;;;5.50;1.40;;;;;;;22.05;62.66;99928.59;107021;1270;22627;-77
2023/07/23 07:35:44;;;;;;;5.00;1.30;;;;;;;22.15;62.53;99922.58;107006;1285;22492;-77
2023/07/23 07:38:15;;;;;;;7.30;1.30;;;;;;;22.25;62.17;99921.40;106964;1285;22581;-77
2023/07/23 07:40:48;;;;;;;6.00;1.10;;;;;;;22.34;61.45;99920.27;106763;1285;22697;-76
2023/07/23 07:43:19;;;;;;;7.40;1.40;;;;;;;22.42;61.23;99923.49;106894;1285;22549;-77
2023/07/23 07:45:52;;;;;;;6.30;1.40;;;;;;;22.50;60.82;99926.41;107074;1285;25302;-76
2023/07/23 07:48:23;;;;;;;9.40;1.80;;;;;;;22.61;60.38;99925.37;107084;1277;22551;-77
2023/07/23 07:51:01;;;;;;;5.30;1.30;;;;;;;22.72;60.08;99926.88;107082;1285;22549;-77
2023/07/23 07:53:32;;;;;;;4.80;1.10;;;;;;;22.84;59.86;99927.70;109788;1285;22176;-77
2023/07/23 07:56:04;;;;;;;5.50;1.30;;;;;;;22.93;58.91;99928.77;109725;1277;22666;-77
2023/07/23 07:58:37;;;;;;;4.10;1.00;;;;;;;22.99;58.67;99925.53;109803;1285;22158;-77
2023/07/23 08:01:09;;;;;;;6.10;1.30;;;;;;;23.06;58.09;99927.04;109729;1279;22325;-77
2023/07/23 08:03:42;;;;;;;5.90;1.10;;;;;;;23.11;57.64;99926.94;109767;1285;22808;-77
2023/07/23 08:06:14;;;;;;;5.80;1.10;;;;;;;23.17;57.44;99927.84;109764;1273;22179;-77
2023/07/23 08:08:46;;;;;;;5.20;1.20;;;;;;;23.22;57.35;99931.59;109774;1280;22293;-77
2023/07/23 08:11:18;;;;;;;5.80;1.30;;;;;;;23.27;57.12;99931.17;109791;1285;22192;-77
2023/07/23 08:13:49;;;;;;;11.10;1.40;;;;;;;23.29;56.20;99934.14;109748;1285;22169;-76
2023/07/23 08:16:20;;;;;;;5.40;1.30;;;;;;;23.31;55.87;99936.26;109757;1285;22231;-76
2023/07/23 08:18:51;;;;;;;5.10;1.10;;;;;;;23.35;55.36;99938.36;109788;1285;22287;-77
2023/07/23 08:21:23;;;;;;;4.50;1.10;;;;;;;23.39;54.67;99932.19;109771;1285;22149;-77
2023/07/23 08:23:55;;;;;;;3.80;1.00;;;;;;;23.44;54.51;99934.02;109799;1285;22184;-78
2023/07/23 08:26:28;;;;;;;4.50;1.30;;;;;;;23.48;53.88;99935.41;109759;1283;22291;-77
2023/07/23 08:29:03;;;;;;;6.70;1.30;;;;;;;23.51;53.81;99931.80;109781;1285;22175;-82
2023/07/23 08:31:35;;;;;;;5.20;1.10;;;;;;;23.54;53.83;99929.13;109782;1285;22540;-82
2023/07/23 08:34:07;;;;;;;4.20;0.90;;;;;;;23.57;53.13;99926.34;109712;1279;22157;-83
2023/07/23 08:36:39;;;;;;;4.20;1.10;;;;;;;23.59;52.74;99923.70;109774;1285;22146;-82
2023/07/23 08:39:11;;;;;;;6.80;1.10;;;;;;;23.62;52.71;99924.80;109765;1285;22320;-83
2023/07/23 08:42:00;;;;;;;4.90;0.90;;;;;;;23.62;52.35;99921.17;109797;1285;22554;-83
2023/07/23 08:45:00;;;;;;;5.00;0.90;;;;;;;23.64;52.83;99916.33;109761;1285;22192;-83
2023/07/23 08:47:37;;;;;;;5.80;1.40;;;;;;;23.76;52.37;99920.92;109743;1285;22144;-83
2023/07/23 08:50:09;;;;;;;3.30;0.90;;;;;;;23.93;52.53;99914.88;109762;1285;22208;-81
2023/07/23 08:52:40;;;;;;;4.80;1.20;;;;;;;24.11;51.90;99919.19;109768;1285;22231;-83
2023/07/23 08:55:13;;;;;;;8.00;1.10;;;;;;;24.26;51.40;99918.55;109801;1285;22324;-82
2023/07/23 08:57:44;;;;;;;5.50;1.10;;;;;;;24.39;50.77;99921.94;109802;1280;23277;-82
2023/07/23 09:00:16;;;;;;;4.40;1.40;;;;;;;24.48;50.60;99908.40;109777;1283;23263;-82
2023/07/23 09:02:48;;;;;;;7.40;1.20;;;;;;;24.60;50.62;99906.73;109806;1284;22192;-83
2023/07/23 09:05:19;;;;;;;5.70;1.20;;;;;;;24.75;50.28;99911.77;109783;1284;22228;-83
2023/07/23 09:07:50;;;;;;;3.80;0.90;;;;;;;24.90;49.14;99907.03;109787;1273;22178;-82
2023/07/23 09:10:21;;;;;;;3.90;1.10;;;;;;;25.03;48.58;99908.41;109757;1285;22192;-83
2023/07/23 09:12:52;;;;;;;5.90;1.20;;;;;;;25.13;48.21;99908.34;109805;1285;22170;-82
2023/07/23 09:15:23;;;;;;;6.80;1.10;;;;;;;25.19;46.68;99910.85;109769;1285;22196;-82
2023/07/23 09:17:54;;;;;;;5.50;1.20;;;;;;;25.24;46.85;99909.01;109773;1285;22136;-82
2023/07/23 09:20:24;;;;;;;4.90;1.20;;;;;;;25.30;46.30;99912.92;109778;1277;22776;-82
2023/07/23 09:22:55;;;;;;;5.20;1.60;;;;;;;25.43;45.95;99911.83;109796;1280;22231;-82
2023/07/23 09:25:31;;;;;;;5.10;1.00;;;;;;;25.57;45.74;99907.58;109771;1285;22246;-83
2023/07/23 09:28:02;;;;;;;6.80;1.10;;;;;;;25.74;44.73;99905.70;109785;1278;22883;-82
2023/07/23 09:30:33;;;;;;;4.30;1.20;;;;;;;25.90;44.35;99898.95;109780;1285;22206;-83
2023/07/23 09:33:06;;;;;;;5.60;1.00;;;;;;;26.03;44.12;99902.30;109798;1285;22973;-82
2023/07/23 09:35:38;;;;;;;4.60;1.10;;;;;;;26.14;43.68;99900.44;109740;1285;22151;-82
2023/07/23 09:38:13;;;;;;;5.00;1.10;;;;;;;26.18;43.16;99899.35;109802;1285;22757;-83
2023/07/23 09:40:44;;;;;;;3.40;0.80;;;;;;;26.18;43.05;99896.61;109806;1285;22206;-82
2023/07/23 09:43:15;;;;;;;4.10;1.00;;;;;;;26.18;42.55;99901.83;109787;1285;22972;-82
2023/07/23 09:45:46;;;;;;;4.20;1.00;;;;;;;26.21;42.06;99895.76;107584;1282;22498;-82
2023/07/23 09:48:18;;;;;;;6.30;1.10;;;;;;;26.19;41.74;99900.16;107571;1277;22502;-82
2023/07/23 09:51:00;;;;;;;6.60;1.20;;;;;;;26.16;41.48;99900.79;107699;1285;22553;-82
2023/07/23 09:53:32;;;;;;;2.90;0.90;;;;;;;26.14;41.07;99897.62;107649;1285;23863;-82
2023/07/23 09:56:03;;;;;;;7.30;1.00;;;;;;;26.12;40.95;99898.30;107660;1279;26437;-82
2023/07/23 09:58:36;;;;;;;13.30;2.60;;;;;;;26.13;41.38;99891.23;107700;1279;23671;-82
2023/07/23 10:01:07;;;;;;;8.50;1.90;;;;;;;26.15;41.34;99894.86;107823;1273;23249;-82
2023/07/23 10:03:38;;;;;;;6.50;1.20;;;;;;;26.16;40.76;99890.73;107590;1285;22896;-82
2023/07/23 10:06:11;;;;;;;6.10;1.10;;;;;;;26.22;40.94;99890.33;107776;1284;23393;-82
2023/07/23 10:08:45;;;;;;;5.50;1.20;;;;;;;26.34;39.81;99898.86;107783;1284;22530;-82
2023/07/23 10:11:19;;;;;;;5.00;1.20;;;;;;;26.46;39.84;99889.95;107678;1285;22571;-82
2023/07/23 10:13:52;;;;;;;7.60;1.20;;;;;;;26.63;39.92;99887.09;107640;1285;23317;-82
2023/07/23 10:16:25;;;;;;;5.50;1.10;;;;;;;26.79;39.51;99882.43;107724;1285;22496;-82
2023/07/23 10:18:59;;;;;;;5.00;1.00;;;;;;;26.93;39.67;99877.05;107596;1285;25453;-82
2023/07/23 10:21:33;;;;;;;4.40;1.00;;;;;;;27.10;39.33;99876.39;107624;1285;22536;-82
2023/07/23 10:24:06;;;;;;;8.00;1.10;;;;;;;27.22;38.25;99873.81;107682;1285;23004;-83
2023/07/23 10:26:43;;;;;;;6.40;1.10;;;;;;;27.26;38.07;99869.36;107722;1285;23300;-82
2023/07/23 10:29:18;;;;;;;5.40;0.80;;;;;;;27.25;37.80;99871.85;107727;1285;22544;-83
2023/07/23 10:31:50;;;;;;;6.60;1.00;;;;;;;27.19;37.30;99864.53;107787;1280;22548;-82
2023/07/23 10:34:43;;;;;;;6.10;1.20;;;;;;;27.17;38.03;99864.14;107683;1285;22765;-82
2023/07/23 10:37:17;;;;;;;4.70;1.10;;;;;;;27.23;37.31;99862.17;107799;1285;22542;-82
2023/07/23 10:39:51;;;;;;;8.00;0.90;;;;;;;27.22;37.14;99860.75;107704;1285;23952;-82
2023/07/23 10:42:42;;;;;;;6.20;1.10;;;;;;;27.30;37.55;99852.79;107697;1285;22533;-82
2023/07/23 10:45:26;;;;;;;5.90;1.00;;;;;;;27.47;37.38;99848.86;107673;1285;22533;-82
2023/07/23 10:48:00;;;;;;;4.60;0.90;;;;;;;27.64;36.88;99852.28;107562;1285;22994;-82
2023/07/23 10:50:33;;;;;;;10.10;1.20;;;;;;;27.75;37.26;99850.91;107445;1285;25446;-82
2023/07/23 10:53:05;;;;;;;8.90;1.00;;;;;;;27.87;36.52;99847.85;107418;1285;22556;-82
2023/07/23 10:55:41;;;;;;;9.50;1.10;;;;;;;27.94;36.71;99840.22;107525;1285;23478;-82
2023/07/23 10:58:15;;;;;;;5.70;1.10;;;;;;;28.02;36.64;99842.36;107591;1285;23319;-82
2023/07/23 11:00:48;;;;;;;4.80;1.00;;;;;;;28.11;36.38;99840.09;107584;1285;25448;-82
2023/07/23 11:03:21;;;;;;;8.60;1.30;;;;;;;28.15;36.05;99834.10;107549;1270;23131;-82
2023/07/23 11:05:54;;;;;;;6.60;1.00;;;;;;;28.24;36.33;99829.67;107706;1285;23450;-82
2023/07/23 11:08:26;;;;;;;11.50;1.10;;;;;;;28.29;36.04;99825.17;107757;1285;22562;-82
2023/07/23 11:10:59;;;;;;;4.40;0.80;;;;;;;28.36;36.36;99818.02;107831;1285;22659;-81
2023/07/23 11:13:33;;;;;;;9.20;0.80;;;;;;;28.50;36.17;99816.66;107675;1285;23289;-82
2023/07/23 11:16:05;;;;;;;5.60;1.20;;;;;;;28.58;35.75;99820.75;109773;1285;22227;-82
2023/07/23 11:18:35;;;;;;;6.00;1.20;;;;;;;28.56;35.47;99817.39;105624;1285;5465928;-83
2023/07/23 11:21:17;;;;;;;8.30;1.40;;;;;;;28.56;35.33;99813.11;109763;1285;22629;-82
2023/07/23 11:23:47;;;;;;;5.20;1.20;;;;;;;28.55;35.14;99813.77;109808;1285;22991;-82
2023/07/23 11:26:19;;;;;;;6.80;1.10;;;;;;;28.48;34.85;99813.98;109779;1285;22178;-82
2023/07/23 11:28:50;;;;;;;9.30;1.00;;;;;;;28.38;34.96;99803.08;109799;1285;22266;-83
2023/07/23 11:31:21;;;;;;;6.20;1.10;;;;;;;28.37;35.16;99800.59;109795;1270;22153;-82
2023/07/23 11:33:52;;;;;;;4.80;1.10;;;;;;;28.38;35.18;99800.36;109790;1285;22206;-82
2023/07/23 11:36:23;;;;;;;3.70;1.10;;;;;;;28.41;35.28;99797.83;109776;1285;22185;-82
2023/07/23 11:38:57;;;;;;;4.40;1.50;;;;;;;28.49;35.22;99795.05;109793;1285;22171;-83
2023/07/23 11:41:32;;;;;;;3.20;1.20;;;;;;;28.56;35.15;99791.66;109790;1285;22581;-82